Time;durP1;ratioP1;P1;durP2;ratioP2;P2;SDS_P1;SDS_P2;PMS_P1;PMS_P2;Temp;Humidity;BMP_temperature;BMP_pressure;BME280_temperature;BME280_humidity;BME280_pressure;Samples;Min_cycle;Max_cycle;Signal;HPM_P1;HPM_P2
2023/07/18 00:00:17;;;;;;;9.52;4.35;;;;;;;15.39;100.00;102039.50;5050530;28;20033;-76
2023/07/18 00:02:45;;;;;;;15.15;4.13;;;;;;;15.43;100.00;102049.97;5050184;28;21009;-75
2023/07/18 00:05:14;;;;;;;6.28;4.00;;;;;;;15.35;100.00;102046.91;5049333;28;20036;-77
2023/07/18 00:07:46;;;;;;;8.98;4.53;;;;;;;15.37;100.00;102039.63;5059506;28;20052;-75
2023/07/18 00:10:20;;;;;;;7.30;3.80;;;;;;;15.36;100.00;102040.59;5043938;28;20583;-74
2023/07/18 00:12:45;;;;;;;8.05;3.92;;;;;;;15.28;100.00;102040.19;5049283;28;20162;-74
2023/07/18 00:15:17;;;;;;;8.75;3.75;;;;;;;15.23;100.00;102040.50;5045031;28;20079;-75
2023/07/18 00:17:46;;;;;;;7.32;3.97;;;;;;;15.05;100.00;102043.47;5043860;28;20581;-75
2023/07/18 00:20:18;;;;;;;10.77;4.50;;;;;;;15.18;100.00;102047.13;5046876;28;20113;-74
2023/07/18 00:22:50;;;;;;;7.50;4.35;;;;;;;15.28;100.00;102040.19;5060298;28;20163;-74
2023/07/18 00:25:19;;;;;;;8.90;3.63;;;;;;;15.27;100.00;102038.47;5049403;28;20041;-73
2023/07/18 00:27:45;;;;;;;6.57;3.95;;;;;;;15.30;100.00;102032.88;5046685;28;20083;-76
2023/07/18 00:30:18;;;;;;;9.27;3.58;;;;;;;15.23;100.00;102036.94;5045643;28;20044;-74
2023/07/18 00:32:44;;;;;;;13.88;4.30;;;;;;;15.22;100.00;102024.47;5038485;28;20052;-76
2023/07/18 00:35:13;;;;;;;9.70;3.85;;;;;;;15.26;100.00;102036.72;5050611;28;20037;-73
2023/07/18 00:37:52;;;;;;;7.75;4.28;;;;;;;15.17;100.00;102037.34;5035355;28;20053;-76
2023/07/18 00:40:18;;;;;;;11.35;4.30;;;;;;;15.10;100.00;102026.09;5044061;28;20041;-76
2023/07/18 00:42:53;;;;;;;10.63;3.88;;;;;;;14.98;100.00;102026.88;5043450;28;20102;-75
2023/07/18 00:45:19;;;;;;;12.93;4.88;;;;;;;15.03;100.00;102027.47;5041677;28;20576;-76
2023/07/18 00:47:45;;;;;;;9.90;4.28;;;;;;;15.02;100.00;102031.97;5059633;28;20040;-76
2023/07/18 00:50:20;;;;;;;8.40;4.38;;;;;;;14.97;100.00;102027.84;5063523;28;20104;-76
2023/07/18 00:52:51;;;;;;;9.73;4.25;;;;;;;15.02;100.00;102026.59;5052344;28;20052;-76
2023/07/18 00:55:17;;;;;;;10.20;4.25;;;;;;;15.07;100.00;102031.69;5048667;28;20041;-75
2023/07/18 00:57:46;;;;;;;17.75;4.32;;;;;;;14.87;100.00;102040.13;5040878;28;20033;-75
2023/07/18 01:00:16;;;;;;;18.02;4.75;;;;;;;14.93;100.00;102034.38;5045562;28;20068;-74
2023/07/18 01:02:45;;;;;;;13.83;4.83;;;;;;;14.96;100.00;102028.78;5056432;28;20033;-74
2023/07/18 01:05:19;;;;;;;7.22;4.15;;;;;;;15.00;100.00;102022.25;5051622;28;20092;-75
2023/07/18 01:07:47;;;;;;;8.20;4.40;;;;;;;14.90;100.00;102023.81;5046695;28;20117;-73
2023/07/18 01:10:16;;;;;;;13.43;4.88;;;;;;;14.84;100.00;102035.81;5044249;28;20445;-73
2023/07/18 01:12:44;;;;;;;9.20;4.43;;;;;;;14.89;100.00;102030.16;5047160;28;20128;-75
2023/07/18 01:15:13;;;;;;;13.95;4.25;;;;;;;14.91;100.00;102037.16;5043689;28;20041;-75
2023/07/18 01:17:45;;;;;;;10.55;4.13;;;;;;;14.75;100.00;102025.63;5048744;28;20068;-73
2023/07/18 01:20:18;;;;;;;7.55;4.00;;;;;;;14.72;100.00;102032.06;5048504;28;20044;-74
2023/07/18 01:23:06;;;;;;;8.80;4.20;;;;;;;14.64;100.00;102036.16;5043461;28;20190;-74
2023/07/18 01:25:33;;;;;;;8.45;3.90;;;;;;;14.74;100.00;102029.28;5061282;28;20033;-73
2023/07/18 01:28:00;;;;;;;17.42;3.95;;;;;;;14.75;100.00;102031.84;5029163;28;20753;-74
2023/07/18 01:30:30;;;;;;;9.57;4.13;;;;;;;14.77;100.00;102039.84;5042102;28;20064;-74
2023/07/18 01:32:56;;;;;;;14.10;4.32;;;;;;;14.80;100.00;102036.09;5049218;28;20040;-74
2023/07/18 01:35:25;;;;;;;9.73;4.03;;;;;;;14.79;100.00;102027.16;5040403;28;20048;-73
2023/07/18 01:37:55;;;;;;;10.35;3.70;;;;;;;14.72;100.00;102024.00;5061372;28;20037;-74
2023/07/18 01:40:21;;;;;;;6.65;3.90;;;;;;;14.72;100.00;102021.31;5057831;28;20033;-74
2023/07/18 01:42:51;;;;;;;8.20;3.75;;;;;;;14.77;100.00;102023.72;5046438;28;20033;-74
2023/07/18 01:45:19;;;;;;;10.98;4.53;;;;;;;14.70;100.00;102019.69;5035371;28;20056;-73
2023/07/18 01:47:45;;;;;;;12.02;4.95;;;;;;;14.66;100.00;102021.72;5044068;28;20041;-74
2023/07/18 01:50:15;;;;;;;12.63;4.70;;;;;;;14.62;100.00;102014.78;5042495;28;20040;-74
2023/07/18 01:52:46;;;;;;;8.20;4.50;;;;;;;14.65;100.00;102021.78;5048335;28;22200;-73
2023/07/18 01:55:17;;;;;;;10.77;3.83;;;;;;;14.66;100.00;102013.66;5045379;28;20099;-75
2023/07/18 01:57:45;;;;;;;8.93;4.40;;;;;;;14.56;100.00;102007.13;5047106;28;20040;-74
2023/07/18 02:00:18;;;;;;;7.78;3.95;;;;;;;14.56;100.00;102001.75;5039906;28;20600;-74
2023/07/18 02:02:52;;;;;;;9.02;4.43;;;;;;;14.60;100.00;101997.03;5048766;28;20045;-73
2023/07/18 02:05:20;;;;;;;8.73;4.47;;;;;;;14.61;100.00;101996.06;5048254;28;20037;-72
2023/07/18 02:07:47;;;;;;;12.50;4.20;;;;;;;14.58;100.00;101994.47;5049491;28;20548;-77
2023/07/18 02:10:21;;;;;;;9.70;4.03;;;;;;;14.61;100.00;101993.38;5040682;28;20033;-75
2023/07/18 02:12:47;;;;;;;14.07;4.30;;;;;;;14.52;100.00;101992.16;5046536;28;20080;-76
2023/07/18 02:15:13;;;;;;;9.90;3.83;;;;;;;14.43;100.00;101996.22;5079519;27;20120;-77
2023/07/18 02:17:51;;;;;;;13.80;3.92;;;;;;;14.53;100.00;102001.06;5048671;28;20053;-75
2023/07/18 02:20:20;;;;;;;10.05;3.78;;;;;;;14.54;100.00;101998.28;5047170;28;20047;-75
2023/07/18 02:22:47;;;;;;;9.55;4.68;;;;;;;14.52;100.00;101996.66;5060679;28;20037;-76
2023/07/18 02:25:17;;;;;;;11.60;5.00;;;;;;;14.54;100.00;101997.44;5047299;28;20035;-75
2023/07/18 02:27:50;;;;;;;11.55;4.05;;;;;;;14.57;100.00;101998.09;5074357;28;20109;-75
2023/07/18 02:30:16;;;;;;;11.30;4.07;;;;;;;14.52;100.00;101996.66;5044428;28;20043;-75
2023/07/18 02:32:45;;;;;;;9.05;3.83;;;;;;;14.47;100.00;101994.22;5039341;28;20053;-76
2023/07/18 02:35:17;;;;;;;15.10;4.50;;;;;;;14.47;100.00;101991.53;5032250;28;20124;-75
2023/07/18 02:37:52;;;;;;;12.88;4.75;;;;;;;14.46;100.00;101989.81;5044878;28;20112;-76
2023/07/18 02:40:18;;;;;;;8.63;3.63;;;;;;;14.42;100.00;101994.50;5044708;28;20065;-75
2023/07/18 02:42:46;;;;;;;9.00;4.25;;;;;;;14.37;100.00;101987.69;5045757;28;20029;-75
2023/07/18 02:45:15;;;;;;;9.50;4.35;;;;;;;14.37;100.00;101985.00;5044053;28;20123;-74
2023/07/18 02:47:43;;;;;;;12.43;4.07;;;;;;;14.34;100.00;101980.69;5045207;28;20044;-76
2023/07/18 02:50:09;;;;;;;7.72;3.45;;;;;;;14.30;100.00;101980.97;5047847;28;20039;-75
2023/07/18 02:52:36;;;;;;;10.82;4.30;;;;;;;14.27;100.00;101982.03;5027869;28;20047;-76
2023/07/18 02:55:03;;;;;;;14.55;4.32;;;;;;;14.32;100.00;101979.06;5045071;28;20037;-74
2023/07/18 02:57:29;;;;;;;8.48;4.22;;;;;;;14.33;100.00;101980.78;5048164;28;20751;-76
2023/07/18 02:59:54;;;;;;;6.47;4.00;;;;;;;14.33;100.00;101975.41;5050187;28;20037;-75
2023/07/18 03:02:20;;;;;;;9.02;4.57;;;;;;;14.30;100.00;101978.28;5051615;28;20037;-75
2023/07/18 03:04:47;;;;;;;7.72;3.97;;;;;;;14.28;100.00;101973.00;5053568;28;20041;-75
2023/07/18 03:07:13;;;;;;;10.15;4.13;;;;;;;14.26;100.00;101977.63;5069844;28;20029;-75
2023/07/18 03:09:45;;;;;;;9.65;4.78;;;;;;;14.17;100.00;101976.34;5052875;28;20037;-74
2023/07/18 03:12:17;;;;;;;12.90;3.95;;;;;;;14.19;100.00;101970.88;5050314;28;20085;-76
2023/07/18 03:14:43;;;;;;;;;;;;;;;14.11;100.00;101968.69;5055382;28;20041;-74
2023/07/18 03:17:12;;;;;;;11.93;4.90;;;;;;;14.05;100.00;101973.53;5053103;28;20371;-75
2023/07/18 03:19:38;;;;;;;10.70;4.10;;;;;;;14.06;100.00;101975.28;5054640;28;20033;-76
2023/07/18 03:22:04;;;;;;;9.98;4.57;;;;;;;14.05;100.00;101973.53;5054817;28;20037;-76
2023/07/18 03:24:34;;;;;;;11.07;5.07;;;;;;;14.07;100.00;101971.63;5047304;28;20536;-75
2023/07/18 03:27:01;;;;;;;13.35;5.93;;;;;;;14.08;100.00;101976.91;5046542;28;20051;-75
2023/07/18 03:29:30;;;;;;;11.73;6.10;;;;;;;14.08;100.00;101976.91;5051903;28;20033;-75
2023/07/18 03:31:55;;;;;;;10.30;5.20;;;;;;;14.09;100.00;101991.16;5080816;28;20033;-74
2023/07/18 03:34:21;;;;;;;9.38;5.10;;;;;;;14.11;100.00;101982.09;5045960;28;20041;-75
2023/07/18 03:36:47;;;;;;;11.40;5.53;;;;;;;13.97;100.00;101985.59;5052003;28;20044;-75
2023/07/18 03:39:13;;;;;;;12.10;5.32;;;;;;;13.96;100.00;101993.72;5048618;28;20034;-75
2023/07/18 03:41:43;;;;;;;11.05;6.00;;;;;;;13.89;100.00;101990.53;5053239;28;20029;-75
2023/07/18 03:44:09;;;;;;;9.55;5.03;;;;;;;13.81;100.00;101994.63;5051312;28;20091;-75
2023/07/18 03:46:35;;;;;;;12.38;5.32;;;;;;;13.80;100.00;101995.56;5050920;28;20557;-76
2023/07/18 03:49:00;;;;;;;6.40;4.47;;;;;;;13.72;100.00;101993.34;5046589;28;20044;-75
2023/07/18 03:51:26;;;;;;;7.22;5.20;;;;;;;13.74;100.00;102000.34;5033129;28;20057;-74
2023/07/18 03:53:52;;;;;;;6.10;4.47;;;;;;;13.73;100.00;101998.59;5050426;28;20056;-74
2023/07/18 03:56:17;;;;;;;10.75;4.80;;;;;;;13.77;100.00;101996.63;5052135;28;20025;-75
2023/07/18 03:58:46;;;;;;;9.00;4.93;;;;;;;13.83;100.00;101992.72;5043435;28;20033;-74
2023/07/18 04:01:15;;;;;;;9.57;5.25;;;;;;;13.85;100.00;102004.19;5047590;28;20182;-75
2023/07/18 04:03:43;;;;;;;9.93;5.45;;;;;;;14.03;100.00;102005.81;5049513;28;20094;-75
2023/07/18 04:06:09;;;;;;;8.13;5.18;;;;;;;14.70;100.00;101988.31;5046049;28;20033;-75
2023/07/18 04:08:36;;;;;;;9.43;4.95;;;;;;;14.87;100.00;101984.59;5048372;28;20043;-75
2023/07/18 04:11:02;;;;;;;12.57;6.05;;;;;;;14.87;100.00;101979.22;5049117;28;20442;-74
2023/07/18 04:13:28;;;;;;;16.08;7.63;;;;;;;14.99;100.00;101977.56;5073808;27;20037;-76
2023/07/18 04:15:54;;;;;;;17.83;7.32;;;;;;;15.72;100.00;101964.75;5048594;28;20033;-74
2023/07/18 04:18:20;;;;;;;15.60;8.50;;;;;;;16.96;100.00;101955.22;5047913;28;20039;-75
2023/07/18 04:20:45;;;;;;;14.68;8.25;;;;;;;17.95;100.00;101949.66;5049261;28;20033;-75
2023/07/18 04:23:18;;;;;;;12.60;6.30;;;;;;;18.83;94.13;101945.41;5044999;28;20597;-75
2023/07/18 04:25:58;;;;;;;15.38;5.90;;;;;;;19.48;85.14;101950.91;5048616;28;20036;-74
2023/07/18 04:28:25;;;;;;;18.83;11.60;;;;;;;19.28;83.81;101945.34;5035482;28;20061;-74
2023/07/18 04:30:51;;;;;;;22.90;15.10;;;;;;;18.48;86.95;101952.72;5048923;28;20048;-74
2023/07/18 04:33:16;;;;;;;21.83;12.00;;;;;;;17.67;92.72;101957.13;5057064;28;20221;-75
2023/07/18 04:35:45;;;;;;;13.23;8.45;;;;;;;17.07;98.33;101953.50;5047829;28;20043;-75
2023/07/18 04:38:17;;;;;;;12.10;7.63;;;;;;;16.62;100.00;101952.25;5042992;28;20867;-74
2023/07/18 04:40:43;;;;;;;18.00;9.05;;;;;;;16.52;100.00;101953.88;5048486;28;20112;-75
2023/07/18 04:43:15;;;;;;;14.57;9.18;;;;;;;16.60;100.00;101950.63;5047908;28;20026;-74
2023/07/18 04:45:46;;;;;;;19.13;9.30;;;;;;;17.78;100.00;101946.41;5047898;28;20047;-74
2023/07/18 04:48:21;;;;;;;24.08;10.85;;;;;;;19.37;92.45;101947.25;5049478;28;20407;-75
2023/07/18 04:50:51;;;;;;;13.73;8.13;;;;;;;19.86;84.19;101935.03;5056758;28;20041;-74
2023/07/18 04:53:17;;;;;;;17.50;9.30;;;;;;;20.42;81.53;101934.69;5077327;27;20049;-74
2023/07/18 04:55:50;;;;;;;10.30;6.93;;;;;;;21.38;76.50;101927.94;5048490;28;20040;-75
2023/07/18 04:58:15;;;;;;;16.63;9.23;;;;;;;21.45;75.76;101925.53;5043740;28;20140;-73
2023/07/18 05:00:44;;;;;;;17.92;9.20;;;;;;;21.37;77.53;101933.50;5046333;28;20454;-75
2023/07/18 05:03:16;;;;;;;16.95;9.65;;;;;;;21.25;76.89;101929.19;5046816;28;20044;-75
2023/07/18 05:05:43;;;;;;;14.15;9.18;;;;;;;20.74;78.60;101938.31;5036480;28;20033;-73
2023/07/18 05:08:09;;;;;;;16.05;9.55;;;;;;;20.83;80.61;101932.06;5046359;28;20082;-75
2023/07/18 05:10:34;;;;;;;14.35;9.52;;;;;;;21.30;80.50;101935.06;5048478;28;20045;-72
2023/07/18 05:13:00;;;;;;;18.08;10.40;;;;;;;21.59;77.96;101932.41;5046336;28;20569;-74
2023/07/18 05:15:26;;;;;;;18.30;10.57;;;;;;;21.49;77.96;101936.94;5046535;28;20044;-75
2023/07/18 05:17:51;;;;;;;17.63;11.15;;;;;;;21.10;78.82;101937.72;5041270;28;20049;-74
2023/07/18 05:20:17;;;;;;;22.30;11.32;;;;;;;21.29;79.81;101933.34;5041208;28;20636;-74
2023/07/18 05:22:48;;;;;;;20.08;11.63;;;;;;;21.24;80.03;101939.19;5046812;28;20841;-74
2023/07/18 05:25:16;;;;;;;17.92;12.32;;;;;;;21.14;81.52;101932.88;5043964;28;20061;-74
2023/07/18 05:27:45;;;;;;;19.52;12.52;;;;;;;21.36;82.62;101937.22;5060721;28;20025;-75
2023/07/18 05:30:18;;;;;;;22.35;12.32;;;;;;;21.16;82.24;101939.00;5044031;28;20103;-74
2023/07/18 05:32:45;;;;;;;18.60;12.55;;;;;;;21.89;80.32;101942.25;5061530;28;20546;-74
2023/07/18 05:35:21;;;;;;;14.98;11.93;;;;;;;21.69;77.72;101938.69;5041278;28;20120;-74
2023/07/18 05:37:46;;;;;;;18.58;12.88;;;;;;;21.20;78.89;101948.59;5044468;28;20033;-74
2023/07/18 05:40:21;;;;;;;19.50;13.20;;;;;;;20.82;81.81;101943.91;5076151;28;20037;-74
2023/07/18 05:42:47;;;;;;;19.75;12.85;;;;;;;20.56;84.58;101948.94;5049572;28;20538;-74
2023/07/18 05:45:22;;;;;;;21.75;12.88;;;;;;;20.56;84.23;101946.22;5082528;27;20045;-74
2023/07/18 05:47:48;;;;;;;21.58;13.70;;;;;;;20.15;87.72;101940.69;5059803;28;21322;-74
2023/07/18 05:50:18;;;;;;;17.38;12.20;;;;;;;20.66;87.10;101939.84;5042653;28;20033;-75
2023/07/18 05:52:46;;;;;;;15.70;11.80;;;;;;;21.59;82.75;101938.69;5049448;28;20055;-73
2023/07/18 05:55:16;;;;;;;21.88;13.30;;;;;;;22.50;77.09;101931.00;5042264;28;20053;-75
2023/07/18 05:57:45;;;;;;;20.80;11.38;;;;;;;23.01;73.12;101935.09;5031392;28;20112;-74
2023/07/18 06:00:23;;;;;;;15.77;10.85;;;;;;;22.27;71.77;101932.34;5048310;28;20052;-75
2023/07/18 06:02:52;;;;;;;16.13;9.77;;;;;;;23.33;68.62;101931.88;5046109;28;20033;-75
2023/07/18 06:05:18;;;;;;;18.08;10.25;;;;;;;23.69;66.95;101923.75;5045622;28;20154;-75
2023/07/18 06:07:46;;;;;;;15.30;9.70;;;;;;;23.83;65.00;101930.50;5047407;28;20041;-75
2023/07/18 06:10:16;;;;;;;14.30;9.30;;;;;;;24.06;64.27;101930.88;5044206;28;20040;-75
2023/07/18 06:12:48;;;;;;;13.43;9.55;;;;;;;24.22;65.21;101931.84;5039831;28;20107;-76
2023/07/18 06:15:13;;;;;;;;;;;;;;;24.25;63.97;101926.06;5047782;28;20033;-75
2023/07/18 06:17:44;;;;;;;13.60;8.88;;;;;;;24.44;63.70;101929.63;5041816;28;19916;-74
2023/07/18 06:20:20;;;;;;;13.57;9.10;;;;;;;24.50;61.71;101927.13;5045522;28;20024;-75
2023/07/18 06:22:47;;;;;;;10.27;7.85;;;;;;;24.19;61.20;101928.56;5079016;27;20132;-74
2023/07/18 06:25:17;;;;;;;10.18;7.47;;;;;;;24.58;60.59;101933.63;5045129;28;20064;-75
2023/07/18 06:27:53;;;;;;;12.50;8.02;;;;;;;24.56;60.58;101927.50;5047584;28;20037;-75
2023/07/18 06:30:19;;;;;;;10.90;7.60;;;;;;;24.56;60.65;101927.50;5046988;28;20033;-73
2023/07/18 06:32:45;;;;;;;15.32;8.07;;;;;;;24.23;60.73;101927.25;5052443;28;20025;-74
2023/07/18 06:35:16;;;;;;;13.02;7.63;;;;;;;23.50;61.71;101946.53;5044201;28;20038;-74
2023/07/18 06:37:45;;;;;;;;;;;;;;;23.85;62.23;101945.69;5052247;28;20120;-73
2023/07/18 06:40:18;;;;;;;15.68;7.32;;;;;;;23.75;61.02;101947.66;5048469;28;19921;-77
2023/07/18 06:42:49;;;;;;;10.00;7.43;;;;;;;23.83;64.14;101935.97;5050053;28;20041;-75
2023/07/18 06:45:18;;;;;;;15.07;8.30;;;;;;;24.07;61.87;101938.88;5063913;28;20044;-77
2023/07/18 06:47:52;;;;;;;10.60;7.22;;;;;;;23.40;61.36;101937.59;5050539;28;20144;-76
2023/07/18 06:50:18;;;;;;;10.18;7.00;;;;;;;23.67;60.93;101942.13;5066636;28;20087;-75
2023/07/18 06:52:46;;;;;;;10.65;7.68;;;;;;;24.00;61.61;101935.94;5081363;28;20095;-76
2023/07/18 06:55:16;;;;;;;14.35;6.88;;;;;;;23.94;61.87;101931.09;5043108;28;20096;-77
2023/07/18 06:57:45;;;;;;;12.43;6.55;;;;;;;24.38;61.07;101928.41;5061915;28;20515;-75
2023/07/18 07:00:23;;;;;;;10.18;6.32;;;;;;;24.04;61.90;101937.31;5059091;28;20036;-76
2023/07/18 07:02:49;;;;;;;9.77;5.78;;;;;;;24.24;60.78;101928.94;5039568;28;20165;-77
2023/07/18 07:05:20;;;;;;;9.70;5.15;;;;;;;24.11;58.26;101933.97;5048778;28;20072;-76
2023/07/18 07:07:49;;;;;;;21.10;5.40;;;;;;;23.97;60.86;101940.84;5064150;28;20377;-76
2023/07/18 07:10:18;;;;;;;9.27;5.40;;;;;;;23.81;60.80;101935.28;5042100;28;20038;-76
2023/07/18 07:12:44;;;;;;;5.38;4.68;;;;;;;24.02;62.72;101942.09;5046224;28;20083;-76
2023/07/18 07:15:15;;;;;;;9.02;5.03;;;;;;;24.17;60.86;101926.00;5050016;28;20218;-75
2023/07/18 07:17:46;;;;;;;9.77;4.07;;;;;;;24.03;61.03;101929.31;5039556;28;20041;-76
2023/07/18 07:20:19;;;;;;;9.63;4.47;;;;;;;24.12;60.63;101924.78;5048542;28;20137;-76
2023/07/18 07:22:47;;;;;;;11.45;5.13;;;;;;;23.95;60.24;101923.81;5059185;28;20090;-75
2023/07/18 07:25:17;;;;;;;11.93;4.85;;;;;;;24.09;60.84;101922.38;5049815;28;20118;-76
2023/07/18 07:27:46;;;;;;;7.32;4.38;;;;;;;24.04;60.97;101926.41;5045831;28;20069;-75
2023/07/18 07:30:15;;;;;;;7.57;4.53;;;;;;;24.13;60.85;101915.59;5038245;28;20103;-75
2023/07/18 07:32:47;;;;;;;9.10;4.63;;;;;;;24.17;59.45;101912.38;5062036;28;20033;-76
2023/07/18 07:35:19;;;;;;;9.50;4.28;;;;;;;24.06;59.02;101917.25;5061337;28;20900;-76
2023/07/18 07:37:54;;;;;;;7.85;4.10;;;;;;;24.35;59.11;101912.34;5044977;28;20041;-74
2023/07/18 07:40:20;;;;;;;7.95;3.72;;;;;;;24.14;59.83;101906.38;5046382;28;20136;-75
2023/07/18 07:42:46;;;;;;;6.82;4.22;;;;;;;24.27;59.81;101906.81;5048972;28;20126;-75
2023/07/18 07:45:16;;;;;;;7.75;5.05;;;;;;;24.34;61.48;101907.03;5045188;28;20137;-75
2023/07/18 07:47:46;;;;;;;8.52;4.60;;;;;;;24.69;62.02;101909.63;5047263;28;20052;-76
2023/07/18 07:50:16;;;;;;;6.75;4.07;;;;;;;24.66;61.25;101903.66;5048061;28;20061;-75
2023/07/18 07:52:46;;;;;;;8.40;3.97;;;;;;;24.70;60.90;101907.75;5047626;28;20052;-75
2023/07/18 07:55:16;;;;;;;5.15;3.80;;;;;;;24.40;58.77;101909.13;5043983;28;20096;-75
2023/07/18 07:57:46;;;;;;;8.75;3.80;;;;;;;24.57;59.40;101908.22;5045496;28;20037;-75
2023/07/18 08:00:21;;;;;;;7.88;4.00;;;;;;;24.31;57.98;101908.22;5047635;28;20064;-75
2023/07/18 08:02:46;;;;;;;8.63;3.95;;;;;;;24.45;58.31;101902.19;5029508;28;20065;-74
2023/07/18 08:05:18;;;;;;;7.55;3.92;;;;;;;24.27;59.21;101895.91;5051373;28;20038;-75
2023/07/18 08:07:47;;;;;;;6.43;3.88;;;;;;;24.46;59.81;101895.72;5052450;28;20052;-75
2023/07/18 08:10:16;;;;;;;5.43;3.33;;;;;;;24.62;60.08;101903.13;5047693;28;20033;-74
2023/07/18 08:12:50;;;;;;;9.23;4.68;;;;;;;24.44;58.70;101900.47;5051453;28;20033;-76
2023/07/18 08:15:16;;;;;;;10.40;4.45;;;;;;;24.67;57.97;101898.03;5067140;28;20555;-76
2023/07/18 08:17:46;;;;;;;5.97;3.10;;;;;;;24.83;57.64;101894.50;5049917;28;20771;-74
2023/07/18 08:20:20;;;;;;;6.78;3.40;;;;;;;25.03;58.16;101890.50;5044157;28;20033;-76
2023/07/18 08:22:46;;;;;;;4.93;2.50;;;;;;;25.16;57.20;101890.06;5044340;28;20033;-74
2023/07/18 08:25:18;;;;;;;4.72;2.53;;;;;;;25.25;56.53;101894.50;5063880;28;20037;-75
2023/07/18 08:27:46;;;;;;;3.40;2.33;;;;;;;24.53;54.19;101888.59;5049996;28;20131;-75
2023/07/18 08:30:16;;;;;;;5.03;2.28;;;;;;;24.76;56.00;101883.41;5049880;28;20029;-76
2023/07/18 08:32:45;;;;;;;5.32;2.70;;;;;;;24.69;56.83;101882.34;5055507;28;20044;-75
2023/07/18 08:35:16;;;;;;;3.85;2.25;;;;;;;24.77;55.17;101884.28;5043624;28;20052;-76
2023/07/18 08:37:52;;;;;;;;;;;;;;;25.14;54.25;101883.03;5049855;28;20041;-75
2023/07/18 08:40:18;;;;;;;6.05;1.90;;;;;;;25.31;53.81;101880.19;5047786;28;19917;-75
2023/07/18 08:42:48;;;;;;;4.43;2.15;;;;;;;25.31;55.63;101890.25;5046710;28;20092;-75
2023/07/18 08:45:19;;;;;;;5.85;2.55;;;;;;;25.16;55.30;101883.75;5047786;28;20061;-75
2023/07/18 08:47:47;;;;;;;7.30;2.40;;;;;;;25.59;56.14;101888.03;5047280;28;20041;-74
2023/07/18 08:50:25;;;;;;;4.80;2.10;;;;;;;25.00;52.96;101884.50;5063526;28;20036;-75
2023/07/18 08:52:53;;;;;;;12.82;2.88;;;;;;;25.23;55.71;101882.03;5053063;28;20076;-74
2023/07/18 08:55:21;;;;;;;7.45;2.50;;;;;;;25.51;54.59;101877.13;5041191;28;20044;-74
2023/07/18 08:57:50;;;;;;;4.55;1.77;;;;;;;25.28;53.73;101879.66;5046310;28;20025;-75
2023/07/18 09:00:16;;;;;;;5.32;2.55;;;;;;;25.47;53.73;101871.16;5042927;28;20037;-76
2023/07/18 09:02:51;;;;;;;5.45;1.95;;;;;;;25.22;53.49;101869.41;5039519;28;20110;-76
2023/07/18 09:05:34;;;;;;;5.78;1.70;;;;;;;25.46;54.45;101864.00;5038760;28;20114;-75
2023/07/18 09:08:07;;;;;;;6.43;2.95;;;;;;;25.46;54.23;101861.25;5044858;28;20044;-76
2023/07/18 09:10:47;;;;;;;4.47;1.98;;;;;;;25.77;54.82;101855.13;5047657;28;40706;-75
2023/07/18 09:13:15;;;;;;;8.20;2.53;;;;;;;25.58;53.12;101848.94;5047925;28;20052;-76
2023/07/18 09:15:47;;;;;;;7.90;2.92;;;;;;;25.88;52.63;101846.56;5049261;28;20052;-76
2023/07/18 09:18:15;;;;;;;7.20;3.00;;;;;;;25.99;51.56;101843.47;5048078;28;20032;-76
2023/07/18 09:20:47;;;;;;;5.45;2.72;;;;;;;25.99;53.71;101846.19;5054522;28;20223;-76
2023/07/18 09:23:15;;;;;;;10.40;2.92;;;;;;;25.94;52.40;101837.66;5036768;28;20079;-75
2023/07/18 09:25:45;;;;;;;4.35;2.47;;;;;;;26.02;52.35;101839.53;5045278;28;20037;-76
2023/07/18 09:28:17;;;;;;;5.07;2.50;;;;;;;26.01;50.93;101835.97;5048003;28;20025;-76
2023/07/18 09:30:44;;;;;;;;;;;;;;;26.14;50.22;101843.59;5015050;28;20037;-76
2023/07/18 09:33:27;;;;;;;4.05;2.20;;;;;;;26.18;51.12;101846.84;5043001;28;19920;-75
2023/07/18 09:36:18;;;;;;;2.58;2.00;;;;;;;26.02;49.97;101850.47;5043057;28;20041;-75
2023/07/18 09:38:47;;;;;;;5.38;1.92;;;;;;;25.92;53.06;101842.47;5044629;28;20037;-75
2023/07/18 09:41:20;;;;;;;7.72;2.38;;;;;;;26.19;52.17;101852.13;5041521;28;20025;-75
2023/07/18 09:43:46;;;;;;;3.58;1.95;;;;;;;26.08;49.21;101845.16;5042482;28;20033;-75
2023/07/18 09:46:19;;;;;;;6.00;2.42;;;;;;;26.22;51.05;101845.47;5030233;28;20052;-76
2023/07/18 09:48:45;;;;;;;3.78;2.60;;;;;;;26.14;51.97;101853.69;5047270;28;20869;-75
2023/07/18 09:51:20;;;;;;;7.03;2.10;;;;;;;25.99;49.97;101843.47;5047110;28;20536;-76
2023/07/18 09:53:47;;;;;;;6.05;1.70;;;;;;;25.81;50.27;101846.41;5046895;28;20948;-76
2023/07/18 09:56:17;;;;;;;2.60;1.40;;;;;;;26.03;49.13;101830.31;5045411;28;20040;-76
2023/07/18 09:58:49;;;;;;;4.15;1.35;;;;;;;25.68;47.86;101843.31;5044514;28;20021;-74
2023/07/18 10:01:21;;;;;;;5.00;1.77;;;;;;;25.79;50.15;101834.78;5042969;28;20040;-76
2023/07/18 10:03:52;;;;;;;4.18;1.60;;;;;;;25.34;47.88;101837.16;5041188;28;20098;-75
2023/07/18 10:06:19;;;;;;;4.57;1.63;;;;;;;25.90;49.76;101833.56;5042232;28;20044;-75
2023/07/18 10:08:46;;;;;;;3.00;1.63;;;;;;;26.24;49.46;101838.78;5053750;28;20045;-76
2023/07/18 10:11:22;;;;;;;2.60;1.40;;;;;;;25.67;47.42;101821.63;5048954;28;20041;-76
2023/07/18 10:13:54;;;;;;;4.38;1.20;;;;;;;25.71;47.60;101826.59;5037698;28;20145;-75
2023/07/18 10:16:20;;;;;;;;;;;;;;;25.14;47.20;101825.72;5050333;28;20395;-75
2023/07/18 10:18:50;;;;;;;4.30;1.30;;;;;;;24.98;47.88;101829.25;5082658;27;19999;-75
2023/07/18 10:21:31;;;;;;;1.40;0.98;;;;;;;25.31;47.59;101827.44;5042486;28;20094;-75
2023/07/18 10:24:19;;;;;;;4.55;1.38;;;;;;;25.37;49.00;101817.72;5062834;27;20057;-76
2023/07/18 10:26:50;;;;;;;5.18;1.25;;;;;;;25.70;49.24;101821.28;5053908;28;20037;-76
2023/07/18 10:29:16;;;;;;;2.47;1.52;;;;;;;25.48;50.47;101818.22;5049438;28;20072;-75
2023/07/18 10:31:47;;;;;;;2.08;0.95;;;;;;;25.90;47.46;101813.59;5050327;28;20871;-76
2023/07/18 10:34:18;;;;;;;3.58;1.25;;;;;;;25.74;48.02;101817.16;5048144;28;20056;-76
2023/07/18 10:37:07;;;;;;;5.72;1.42;;;;;;;25.62;47.63;101807.63;5043978;28;20032;-75
2023/07/18 10:39:50;;;;;;;2.00;1.23;;;;;;;25.90;47.16;101802.66;5056069;28;20052;-76
2023/07/18 10:42:34;;;;;;;3.22;1.63;;;;;;;26.13;46.91;101808.25;5049983;28;20040;-76
2023/07/18 10:45:07;;;;;;;3.92;1.20;;;;;;;26.16;48.53;101803.28;5034144;28;20308;-76
2023/07/18 10:47:35;;;;;;;2.53;1.17;;;;;;;26.49;46.94;101795.81;5065982;28;20037;-75
2023/07/18 10:50:07;;;;;;;2.90;1.00;;;;;;;26.66;48.00;101792.97;5043491;28;20923;-76
2023/07/18 10:52:34;;;;;;;4.53;1.10;;;;;;;26.29;49.08;101792.63;5058908;28;20053;-75
2023/07/18 10:55:07;;;;;;;2.45;0.95;;;;;;;26.00;46.19;101785.03;5045491;28;20333;-76
2023/07/18 10:57:37;;;;;;;2.33;0.93;;;;;;;26.20;47.81;101782.75;5066131;28;20037;-75
2023/07/18 11:00:05;;;;;;;1.80;1.00;;;;;;;26.38;44.76;101767.97;5038305;28;20034;-76
2023/07/18 11:02:49;;;;;;;2.42;0.93;;;;;;;26.18;45.26;101768.41;5049591;28;20931;-75
2023/07/18 11:05:18;;;;;;;1.90;1.00;;;;;;;26.26;44.75;101760.19;5042174;28;20039;-76
2023/07/18 11:07:48;;;;;;;1.75;1.05;;;;;;;26.45;44.12;101758.03;5049661;28;20033;-76
2023/07/18 11:10:22;;;;;;;2.03;0.95;;;;;;;26.42;45.57;101756.53;5043773;28;20044;-76
2023/07/18 11:12:52;;;;;;;1.95;0.90;;;;;;;26.42;44.78;101751.06;5048825;28;20109;-76
2023/07/18 11:15:21;;;;;;;4.50;0.98;;;;;;;26.76;45.64;101747.13;5039677;28;20072;-76
2023/07/18 11:17:47;;;;;;;4.15;0.88;;;;;;;26.55;45.86;101736.78;5048936;28;20043;-76
2023/07/18 11:20:22;;;;;;;2.67;0.85;;;;;;;26.28;45.68;101746.31;5042675;28;20655;-76
2023/07/18 11:22:49;;;;;;;3.53;1.00;;;;;;;26.73;48.07;101739.25;5056551;28;20056;-74
2023/07/18 11:25:20;;;;;;;1.38;0.77;;;;;;;26.75;44.23;101740.75;5054524;28;20033;-76
2023/07/18 11:27:48;;;;;;;;;;;;;;;26.88;44.21;101725.63;5050680;28;20060;-75
2023/07/18 11:30:21;;;;;;;3.38;0.95;;;;;;;26.77;44.75;101722.28;5051032;28;20112;-76